Terminal Aerodrome Forecast
Issued by NWS Tuscon, AZ

Home | Current Version | Previous Version | Text Only | Print | Product List | Glossary On
Versions: 1 2 3 4 5 6 7 8 9 10 11 12
000
FTUS45 KTWC 251138
TAFTUS
TAF
KTUS 251138Z 2512/2612 14007KT P6SM FEW140
     FM251600 24005KT P6SM FEW100
     FM252100 28008KT P6SM SCT100
     FM260300 22006KT P6SM FEW100
     FM260800 15006KT P6SM SKC=

USA.gov is the U.S. government's official web portal to all federal, state and local government web resources and services.